createdAt,value
2018-08-31T00:01:49.400Z,15.50
2018-08-31T00:05:32.466Z,15.40
2018-08-31T00:08:18.255Z,15.30
2018-08-31T00:13:03.563Z,15.40
2018-08-31T00:15:37.887Z,15.50
2018-08-31T00:18:12.244Z,15.40
2018-08-31T00:20:46.790Z,15.10
2018-08-31T00:23:31.130Z,14.80
2018-08-31T00:26:17.806Z,14.90
2018-08-31T00:29:54.922Z,15.00
2018-08-31T00:33:09.122Z,15.20
2018-08-31T00:38:00.965Z,15.00
2018-08-31T00:42:48.896Z,15.00
2018-08-31T00:45:30.483Z,15.10
2018-08-31T00:48:05.255Z,15.20
2018-08-31T00:50:39.699Z,15.20
2018-08-31T00:53:14.046Z,15.30
2018-08-31T00:55:48.390Z,15.30
2018-08-31T00:58:22.780Z,15.30
2018-08-31T01:00:57.148Z,15.30
2018-08-31T01:03:31.599Z,15.30
2018-08-31T01:06:06.048Z,15.30
2018-08-31T01:08:40.433Z,15.20
2018-08-31T01:11:14.900Z,15.20
2018-08-31T01:13:49.394Z,15.30
2018-08-31T01:16:23.746Z,15.30
2018-08-31T01:18:58.231Z,15.20
2018-08-31T01:21:32.550Z,15.20
2018-08-31T01:24:06.874Z,15.20
2018-08-31T01:26:41.252Z,15.20
2018-08-31T01:29:15.507Z,15.20
2018-08-31T01:31:49.790Z,15.30
2018-08-31T01:34:24.124Z,15.40
2018-08-31T01:36:58.481Z,15.20
2018-08-31T01:39:33.012Z,14.70
2018-08-31T01:42:07.340Z,14.60
2018-08-31T01:44:41.732Z,14.40
2018-08-31T01:47:16.136Z,14.60
2018-08-31T01:49:50.572Z,14.70
2018-08-31T01:52:24.848Z,14.80
2018-08-31T01:54:59.220Z,14.90
2018-08-31T01:57:33.612Z,15.00
2018-08-31T02:00:07.920Z,15.00
2018-08-31T02:02:42.235Z,15.10
2018-08-31T02:05:16.694Z,14.90
2018-08-31T02:07:51.002Z,15.00
2018-08-31T02:10:25.311Z,15.10
2018-08-31T02:12:59.745Z,15.10
2018-08-31T02:15:34.210Z,15.00
2018-08-31T02:18:08.483Z,15.00
2018-08-31T02:20:42.853Z,14.90
2018-08-31T02:23:17.250Z,15.00
2018-08-31T02:25:51.470Z,15.00
2018-08-31T02:28:25.790Z,14.90
2018-08-31T02:31:00.072Z,15.00
2018-08-31T02:33:34.548Z,15.00
2018-08-31T02:36:08.847Z,15.00
2018-08-31T02:38:43.099Z,15.00
2018-08-31T02:41:17.676Z,15.10
2018-08-31T02:43:52.598Z,15.10
2018-08-31T02:46:26.957Z,15.00
2018-08-31T02:49:01.299Z,15.10
2018-08-31T02:51:35.782Z,15.00
2018-08-31T02:54:10.221Z,14.90
2018-08-31T02:56:44.608Z,15.00
2018-08-31T02:59:18.971Z,14.90
2018-08-31T03:01:53.320Z,15.00
2018-08-31T03:04:27.604Z,15.00
2018-08-31T03:07:02.046Z,15.00
2018-08-31T03:09:36.445Z,15.00
2018-08-31T03:12:10.708Z,15.00
2018-08-31T03:14:44.952Z,15.00
2018-08-31T03:17:19.247Z,14.90
2018-08-31T03:19:53.652Z,14.80
2018-08-31T03:22:28.002Z,14.70
2018-08-31T03:25:02.260Z,14.80
2018-08-31T03:27:36.699Z,14.90
2018-08-31T03:30:10.941Z,14.90
2018-08-31T03:32:45.322Z,14.80
2018-08-31T03:35:19.647Z,14.80
2018-08-31T03:37:53.979Z,14.90
2018-08-31T03:40:28.411Z,14.90
2018-08-31T03:43:02.910Z,14.80
2018-08-31T03:45:37.186Z,14.80
2018-08-31T03:48:11.575Z,14.70
2018-08-31T03:50:46.013Z,14.70
2018-08-31T03:53:20.312Z,14.70
2018-08-31T03:55:54.594Z,14.70
2018-08-31T03:58:28.883Z,14.60
2018-08-31T04:01:03.197Z,14.70
2018-08-31T04:03:37.639Z,14.70
2018-08-31T04:06:12.128Z,14.70
2018-08-31T04:08:46.690Z,14.60
2018-08-31T04:11:21.047Z,14.60
2018-08-31T04:13:55.434Z,14.60
2018-08-31T04:16:29.720Z,14.70
2018-08-31T04:19:19.522Z,14.70
2018-08-31T04:21:53.935Z,14.70
2018-08-31T04:24:28.179Z,14.60
2018-08-31T04:27:02.616Z,14.70
2018-08-31T04:29:36.986Z,14.60
2018-08-31T04:32:11.467Z,14.60
2018-08-31T04:34:45.803Z,14.60
2018-08-31T04:37:20.191Z,14.60
2018-08-31T04:39:54.615Z,14.60
2018-08-31T04:42:28.979Z,14.60
2018-08-31T04:45:03.383Z,14.60
2018-08-31T04:47:37.795Z,14.60
2018-08-31T04:50:12.164Z,14.70
2018-08-31T04:52:46.415Z,14.70
2018-08-31T04:55:20.755Z,14.70
2018-08-31T04:57:55.136Z,14.70
2018-08-31T05:00:29.454Z,14.70
2018-08-31T05:03:03.894Z,14.80
2018-08-31T05:05:38.331Z,14.70
2018-08-31T05:08:12.732Z,14.70
2018-08-31T05:10:47.043Z,14.80
2018-08-31T05:13:21.291Z,14.70
2018-08-31T05:15:55.629Z,14.70
2018-08-31T05:18:30.104Z,14.40
2018-08-31T05:21:04.817Z,14.30
2018-08-31T05:23:39.115Z,14.50
2018-08-31T05:26:13.589Z,14.60
2018-08-31T05:28:47.986Z,14.70
2018-08-31T05:31:22.283Z,14.80
2018-08-31T05:33:56.625Z,14.80
2018-08-31T05:36:30.910Z,14.80
2018-08-31T05:39:08.314Z,14.80
2018-08-31T05:41:42.855Z,14.80
2018-08-31T05:44:17.094Z,14.70
2018-08-31T05:46:51.435Z,14.70
2018-08-31T05:49:25.947Z,14.70
2018-08-31T05:52:00.199Z,14.70
2018-08-31T05:54:34.469Z,14.80
2018-08-31T05:57:08.776Z,14.70
2018-08-31T05:59:43.075Z,14.70
2018-08-31T06:02:17.354Z,14.70
2018-08-31T06:04:51.760Z,14.80
2018-08-31T06:07:26.070Z,14.80
2018-08-31T06:10:00.575Z,15.00
2018-08-31T06:12:35.020Z,14.90
2018-08-31T06:15:09.324Z,14.80
2018-08-31T06:17:43.586Z,14.70
2018-08-31T06:20:17.948Z,14.80
2018-08-31T06:22:52.288Z,14.80
2018-08-31T06:25:26.561Z,14.80
2018-08-31T06:28:00.919Z,14.70
2018-08-31T06:30:35.218Z,14.70
2018-08-31T06:33:09.636Z,14.50
2018-08-31T06:35:43.987Z,14.40
2018-08-31T06:38:18.462Z,14.40
2018-08-31T06:40:52.999Z,14.50
2018-08-31T06:43:27.157Z,14.60
2018-08-31T06:46:01.548Z,14.60
2018-08-31T06:48:36.016Z,14.70
2018-08-31T06:51:10.454Z,14.80
2018-08-31T06:53:44.858Z,14.80
2018-08-31T06:56:19.219Z,14.90
2018-08-31T06:58:53.722Z,14.90
2018-08-31T07:01:28.098Z,15.00
2018-08-31T07:04:02.446Z,15.20
2018-08-31T07:06:36.744Z,14.90
2018-08-31T07:09:11.822Z,14.50
2018-08-31T07:11:46.067Z,14.10
2018-08-31T07:14:20.459Z,14.10
2018-08-31T07:16:54.911Z,14.30
2018-08-31T07:19:29.336Z,14.60
2018-08-31T07:22:03.594Z,14.80
2018-08-31T07:24:38.055Z,14.80
2018-08-31T07:27:12.444Z,15.00
2018-08-31T07:29:46.926Z,15.10
2018-08-31T07:32:21.247Z,15.10
2018-08-31T07:34:55.528Z,15.10
2018-08-31T07:37:29.911Z,15.20
2018-08-31T07:40:04.488Z,15.10
2018-08-31T07:42:38.753Z,15.10
2018-08-31T07:45:13.075Z,15.10
2018-08-31T07:47:47.408Z,15.10
2018-08-31T07:50:21.824Z,15.00
2018-08-31T07:52:56.273Z,15.10
2018-08-31T07:55:30.642Z,15.00
2018-08-31T07:58:05.002Z,15.10
2018-08-31T08:00:39.413Z,15.20
2018-08-31T08:03:13.720Z,15.30
2018-08-31T08:05:48.271Z,15.40
2018-08-31T08:08:22.618Z,15.20
2018-08-31T08:10:57.041Z,15.30
2018-08-31T08:13:31.361Z,15.30
2018-08-31T08:16:06.195Z,15.30
2018-08-31T08:18:40.472Z,15.30
2018-08-31T08:21:14.811Z,15.30
2018-08-31T08:23:49.326Z,15.30
2018-08-31T08:26:23.747Z,15.40
2018-08-31T08:28:58.041Z,15.40
2018-08-31T08:31:32.352Z,15.40
2018-08-31T08:34:06.731Z,15.50
2018-08-31T08:36:41.314Z,15.50
2018-08-31T08:39:15.732Z,15.40
2018-08-31T08:41:50.066Z,15.30
2018-08-31T08:44:24.505Z,15.30
2018-08-31T08:46:58.947Z,15.30
2018-08-31T08:49:33.314Z,15.30
2018-08-31T08:52:07.753Z,15.40
2018-08-31T08:54:42.183Z,15.30
2018-08-31T08:57:16.643Z,15.40
2018-08-31T08:59:51.052Z,15.30
2018-08-31T09:02:25.504Z,15.40
2018-08-31T09:04:59.876Z,15.50
2018-08-31T09:07:34.139Z,15.50
2018-08-31T09:10:08.457Z,15.40
2018-08-31T09:12:42.832Z,15.30
2018-08-31T09:15:17.123Z,15.50
2018-08-31T09:17:51.864Z,15.50
2018-08-31T09:20:26.135Z,15.60
2018-08-31T09:23:00.673Z,15.60
2018-08-31T09:25:35.034Z,15.60
2018-08-31T09:28:09.385Z,15.50
2018-08-31T09:30:45.547Z,15.50
2018-08-31T09:33:20.037Z,15.50
2018-08-31T09:35:54.428Z,15.50
2018-08-31T09:38:28.775Z,15.50
2018-08-31T09:41:03.014Z,15.50
2018-08-31T09:43:37.416Z,15.40
2018-08-31T09:46:11.716Z,15.50
2018-08-31T09:48:46.023Z,15.50
2018-08-31T09:51:20.488Z,15.50
2018-08-31T09:53:54.851Z,15.40
2018-08-31T09:56:29.099Z,15.40
2018-08-31T09:59:03.394Z,15.40
2018-08-31T10:01:37.735Z,15.40
2018-08-31T10:04:11.997Z,15.40
2018-08-31T10:06:46.388Z,15.40
2018-08-31T10:09:20.787Z,15.40
2018-08-31T10:11:55.126Z,15.60
2018-08-31T10:14:29.608Z,15.60
2018-08-31T10:17:04.020Z,15.60
2018-08-31T10:19:38.346Z,15.60
2018-08-31T10:22:12.671Z,15.60
2018-08-31T10:24:47.123Z,15.60
2018-08-31T10:27:21.522Z,15.70
2018-08-31T10:29:55.970Z,15.80
2018-08-31T10:32:30.247Z,15.80
2018-08-31T10:35:05.026Z,15.80
2018-08-31T10:37:39.432Z,15.70
2018-08-31T10:40:13.665Z,15.70
2018-08-31T10:42:47.950Z,15.50
2018-08-31T10:45:22.292Z,15.30
2018-08-31T10:47:56.809Z,15.30
2018-08-31T10:50:31.187Z,15.30
2018-08-31T10:53:05.448Z,15.20
2018-08-31T10:55:39.871Z,15.10
2018-08-31T10:58:14.177Z,15.30
2018-08-31T11:00:48.484Z,15.30
2018-08-31T11:03:22.873Z,15.30
2018-08-31T11:05:57.391Z,15.30
2018-08-31T11:08:31.882Z,15.30
2018-08-31T11:11:06.934Z,15.20
2018-08-31T11:13:41.439Z,15.10
2018-08-31T11:16:15.716Z,15.10
2018-08-31T11:18:50.224Z,15.10
2018-08-31T11:21:24.443Z,15.20
2018-08-31T11:23:58.806Z,15.30
2018-08-31T11:26:33.189Z,15.40
2018-08-31T11:29:07.584Z,15.40
2018-08-31T11:31:41.962Z,15.50
2018-08-31T11:34:16.316Z,15.60
2018-08-31T11:36:50.619Z,15.50
2018-08-31T11:39:24.933Z,15.50
2018-08-31T11:41:59.308Z,15.50
2018-08-31T11:44:33.782Z,15.60
2018-08-31T11:47:08.071Z,15.50
2018-08-31T11:49:42.363Z,15.60
2018-08-31T11:52:16.708Z,15.60
2018-08-31T11:54:51.084Z,15.70
2018-08-31T11:57:25.523Z,15.50
2018-08-31T11:59:59.948Z,15.50
2018-08-31T12:02:34.545Z,15.40
2018-08-31T12:05:09.066Z,15.60
2018-08-31T12:07:43.420Z,15.60
2018-08-31T12:10:17.856Z,15.70
2018-08-31T12:12:52.385Z,15.60
2018-08-31T12:15:26.804Z,15.70
2018-08-31T12:18:01.129Z,15.60
2018-08-31T12:20:35.555Z,15.50
2018-08-31T12:23:09.828Z,15.40
2018-08-31T12:25:44.127Z,15.20
2018-08-31T12:28:18.419Z,15.30
2018-08-31T12:30:52.762Z,15.30
2018-08-31T12:33:27.114Z,15.30
2018-08-31T12:36:01.595Z,15.30
2018-08-31T12:38:35.954Z,15.20
2018-08-31T12:41:10.388Z,15.40
2018-08-31T12:43:44.802Z,15.40
2018-08-31T12:46:19.175Z,15.30
2018-08-31T12:48:53.532Z,15.40
2018-08-31T12:51:27.880Z,15.30
2018-08-31T12:54:02.243Z,15.50
2018-08-31T12:56:36.697Z,15.50
2018-08-31T12:59:11.086Z,15.60
2018-08-31T13:01:45.498Z,15.60
2018-08-31T13:04:19.943Z,15.70
2018-08-31T13:06:54.374Z,15.80
2018-08-31T13:09:28.820Z,15.80
2018-08-31T13:12:03.291Z,15.80
2018-08-31T13:14:37.711Z,15.90
2018-08-31T13:17:12.208Z,16.00
2018-08-31T13:19:46.576Z,16.10
2018-08-31T13:22:21.027Z,16.20
2018-08-31T13:24:55.334Z,16.10
2018-08-31T13:27:29.671Z,15.70
2018-08-31T13:30:04.167Z,15.70
2018-08-31T13:32:38.761Z,15.40
2018-08-31T13:35:13.083Z,15.30
2018-08-31T13:37:47.452Z,15.30
2018-08-31T13:40:21.831Z,15.40
2018-08-31T13:42:56.135Z,15.40
2018-08-31T13:45:30.463Z,15.50
2018-08-31T13:48:04.875Z,15.50
2018-08-31T13:50:39.192Z,15.60
2018-08-31T13:53:13.507Z,15.60
2018-08-31T13:55:47.829Z,15.70
2018-08-31T13:58:22.210Z,15.80
2018-08-31T14:00:56.569Z,15.60
2018-08-31T14:03:30.998Z,15.50
2018-08-31T14:06:05.252Z,15.40
2018-08-31T14:08:39.722Z,15.40
2018-08-31T14:11:14.030Z,15.40
2018-08-31T14:13:48.620Z,15.40
2018-08-31T14:16:23.079Z,15.60
2018-08-31T14:18:57.448Z,15.60
2018-08-31T14:21:31.911Z,15.60
2018-08-31T14:24:06.813Z,15.50
2018-08-31T14:26:41.270Z,15.60
2018-08-31T14:29:15.681Z,15.60
2018-08-31T14:31:50.109Z,15.60
2018-08-31T14:34:24.544Z,15.60
2018-08-31T14:36:58.839Z,15.40
2018-08-31T14:39:33.303Z,15.30
2018-08-31T14:42:07.575Z,15.40
2018-08-31T14:44:41.920Z,15.40
2018-08-31T14:47:16.352Z,15.30
2018-08-31T14:49:50.801Z,15.40
2018-08-31T14:52:26.313Z,15.60
2018-08-31T14:55:00.844Z,15.50
2018-08-31T14:57:35.313Z,15.50
2018-08-31T15:00:09.571Z,15.60
2018-08-31T15:02:43.951Z,15.60
2018-08-31T15:05:18.930Z,15.70
2018-08-31T15:07:53.507Z,15.60
2018-08-31T15:10:27.837Z,15.70
2018-08-31T15:13:02.321Z,15.80
2018-08-31T15:15:36.624Z,15.70
2018-08-31T15:18:10.893Z,15.70
2018-08-31T15:20:45.344Z,15.70
2018-08-31T15:23:19.661Z,15.80
2018-08-31T15:25:54.071Z,15.80
2018-08-31T15:28:28.512Z,15.80
2018-08-31T15:31:02.932Z,15.80
2018-08-31T15:33:37.444Z,15.70
2018-08-31T15:36:11.867Z,15.80
2018-08-31T15:38:46.166Z,15.80
2018-08-31T15:41:20.655Z,15.80
2018-08-31T15:43:55.006Z,15.80
2018-08-31T15:46:29.456Z,15.60
2018-08-31T15:49:03.858Z,15.50
2018-08-31T15:51:38.175Z,15.50
2018-08-31T15:54:12.605Z,15.60
2018-08-31T15:56:47.023Z,15.50
2018-08-31T15:59:21.445Z,15.40
2018-08-31T16:01:55.876Z,15.30
2018-08-31T16:04:30.609Z,15.50
2018-08-31T16:07:05.247Z,15.60
2018-08-31T16:09:39.631Z,15.60
2018-08-31T16:12:14.047Z,15.40
2018-08-31T16:14:48.475Z,15.50
2018-08-31T16:17:22.780Z,15.50
2018-08-31T16:19:57.348Z,15.50
2018-08-31T16:22:31.838Z,15.50
2018-08-31T16:25:06.384Z,15.40
2018-08-31T16:27:40.850Z,15.40
2018-08-31T16:30:15.179Z,15.30
2018-08-31T16:32:49.672Z,15.20
2018-08-31T16:35:24.071Z,15.20
2018-08-31T16:37:58.354Z,15.20
2018-08-31T16:40:32.733Z,15.20
2018-08-31T16:43:07.064Z,15.20
2018-08-31T16:45:41.456Z,15.20
2018-08-31T16:48:15.784Z,15.20
2018-08-31T16:50:50.139Z,15.10
2018-08-31T16:53:24.456Z,15.10
2018-08-31T16:55:58.808Z,15.10
2018-08-31T16:58:33.199Z,15.20
2018-08-31T17:01:07.776Z,15.30
2018-08-31T17:03:42.147Z,15.30
2018-08-31T17:06:16.471Z,15.40
2018-08-31T17:08:50.869Z,15.40
2018-08-31T17:11:25.607Z,15.30
2018-08-31T17:14:00.147Z,15.20
2018-08-31T17:16:34.544Z,15.10
2018-08-31T17:19:08.967Z,15.10
2018-08-31T17:21:43.427Z,15.10
2018-08-31T17:24:17.910Z,15.20
2018-08-31T17:29:04.786Z,15.20
2018-08-31T17:31:44.635Z,15.20
2018-08-31T17:34:24.386Z,15.20
2018-08-31T17:37:04.149Z,15.10
2018-08-31T17:39:38.469Z,15.10
2018-08-31T17:42:12.891Z,15.10
2018-08-31T17:44:47.341Z,15.10
2018-08-31T17:47:21.655Z,15.20
2018-08-31T17:49:55.912Z,15.30
2018-08-31T17:52:30.278Z,15.20
2018-08-31T17:55:04.577Z,15.20
2018-08-31T17:57:39.026Z,15.00
2018-08-31T18:00:13.527Z,15.00
2018-08-31T18:02:47.968Z,15.10
2018-08-31T18:05:22.379Z,15.00
2018-08-31T18:07:56.760Z,15.00
2018-08-31T18:10:31.285Z,15.00
2018-08-31T18:13:05.705Z,15.00
2018-08-31T18:15:40.179Z,14.90
2018-08-31T18:18:14.664Z,14.90
2018-08-31T18:20:49.078Z,14.90
2018-08-31T18:23:23.485Z,14.80
2018-08-31T18:25:57.888Z,14.90
2018-08-31T18:28:32.238Z,14.90
2018-08-31T18:31:06.759Z,15.00
2018-08-31T18:33:41.057Z,15.00
2018-08-31T18:36:15.396Z,15.00
2018-08-31T18:38:49.828Z,15.00
2018-08-31T18:41:24.231Z,15.00
2018-08-31T18:43:58.644Z,14.90
2018-08-31T18:46:33.435Z,14.90
2018-08-31T18:49:07.908Z,14.90
2018-08-31T18:51:42.367Z,14.90
2018-08-31T18:54:16.848Z,15.00
2018-08-31T18:56:51.368Z,15.00
2018-08-31T18:59:25.816Z,14.90
2018-08-31T19:02:00.063Z,14.90
2018-08-31T19:04:34.538Z,14.90
2018-08-31T19:07:09.037Z,15.00
2018-08-31T19:09:43.400Z,15.00
2018-08-31T19:12:17.676Z,14.80
2018-08-31T19:14:52.111Z,14.90
2018-08-31T19:17:26.519Z,14.90
2018-08-31T19:20:00.828Z,14.90
2018-08-31T19:22:35.174Z,14.80
2018-08-31T19:25:09.714Z,14.70
2018-08-31T19:27:45.022Z,14.70
2018-08-31T19:30:19.551Z,14.80
2018-08-31T19:32:53.885Z,14.80
2018-08-31T19:35:28.319Z,14.80
2018-08-31T19:38:02.798Z,14.70
2018-08-31T19:40:37.088Z,14.80
2018-08-31T19:43:11.419Z,14.60
2018-08-31T19:45:45.695Z,14.60
2018-08-31T19:48:20.154Z,14.60
2018-08-31T19:50:54.487Z,14.70
2018-08-31T19:53:28.785Z,14.60
2018-08-31T19:56:03.218Z,14.60
2018-08-31T19:58:37.756Z,14.60
2018-08-31T20:01:12.067Z,14.50
2018-08-31T20:03:46.485Z,14.50
2018-08-31T20:06:21.015Z,14.50
2018-08-31T20:08:55.435Z,14.50
2018-08-31T20:11:29.828Z,14.50
2018-08-31T20:14:04.417Z,14.50
2018-08-31T20:16:39.016Z,14.50
2018-08-31T20:19:13.314Z,14.60
2018-08-31T20:21:47.655Z,14.70
2018-08-31T20:24:22.076Z,14.70
2018-08-31T20:26:56.479Z,14.60
2018-08-31T20:29:30.800Z,14.70
2018-08-31T20:32:05.235Z,14.70
2018-08-31T20:34:39.736Z,14.80
2018-08-31T20:37:14.188Z,14.70
2018-08-31T20:39:48.700Z,14.70
2018-08-31T20:42:23.087Z,14.70
2018-08-31T20:44:57.539Z,14.70
2018-08-31T20:47:31.948Z,14.60
2018-08-31T20:50:06.259Z,14.60
2018-08-31T20:52:40.598Z,14.50
2018-08-31T20:55:15.018Z,14.40
2018-08-31T20:57:49.445Z,14.40
2018-08-31T21:00:23.756Z,14.40
2018-08-31T21:02:58.041Z,14.40
2018-08-31T21:05:32.399Z,14.50
2018-08-31T21:08:06.879Z,14.40
2018-08-31T21:10:41.223Z,14.40
2018-08-31T21:13:15.524Z,14.50
2018-08-31T21:15:49.847Z,14.50
2018-08-31T21:18:24.259Z,14.60
2018-08-31T21:20:58.719Z,14.60
2018-08-31T21:23:33.041Z,14.70
2018-08-31T21:26:07.812Z,14.70
2018-08-31T21:28:42.263Z,14.80
2018-08-31T21:31:16.600Z,14.70
2018-08-31T21:33:50.923Z,14.60
2018-08-31T21:36:25.316Z,14.60
2018-08-31T21:38:59.751Z,14.50
2018-08-31T21:41:34.254Z,14.60
2018-08-31T21:44:08.800Z,14.60
2018-08-31T21:46:43.115Z,14.70
2018-08-31T21:49:17.578Z,14.60
2018-08-31T21:51:52.059Z,14.70
2018-08-31T21:54:26.375Z,14.70
2018-08-31T21:57:00.691Z,14.70
2018-08-31T21:59:35.125Z,14.60
2018-08-31T22:02:09.516Z,14.70
2018-08-31T22:04:44.141Z,14.70
2018-08-31T22:07:18.529Z,14.50
2018-08-31T22:09:52.816Z,14.50
2018-08-31T22:12:27.266Z,14.60
2018-08-31T22:15:01.655Z,14.50
2018-08-31T22:17:36.043Z,14.40
2018-08-31T22:20:10.385Z,14.50
2018-08-31T22:22:44.799Z,14.40
2018-08-31T22:25:19.228Z,14.40
2018-08-31T22:27:53.728Z,14.50
2018-08-31T22:30:28.207Z,14.40
2018-08-31T22:33:02.523Z,14.40
2018-08-31T22:35:36.895Z,14.30
2018-08-31T22:38:11.434Z,14.30
2018-08-31T22:40:45.922Z,14.30
2018-08-31T22:43:24.497Z,14.30
2018-08-31T22:45:58.780Z,14.40
2018-08-31T22:48:33.202Z,14.30
2018-08-31T22:51:07.600Z,14.10
2018-08-31T22:53:42.119Z,13.90
2018-08-31T22:56:16.532Z,13.90
2018-08-31T22:58:50.971Z,14.00
2018-08-31T23:01:25.287Z,14.00
2018-08-31T23:03:59.604Z,14.10
2018-08-31T23:06:34.025Z,14.20
2018-08-31T23:09:08.367Z,14.20
2018-08-31T23:11:42.852Z,14.20
2018-08-31T23:14:17.174Z,14.20
2018-08-31T23:16:51.700Z,14.20
2018-08-31T23:19:26.216Z,14.10
2018-08-31T23:22:00.771Z,14.00
2018-08-31T23:24:35.240Z,14.00
2018-08-31T23:27:09.808Z,13.90
2018-08-31T23:29:44.645Z,13.90
2018-08-31T23:32:19.035Z,13.90
2018-08-31T23:34:53.790Z,14.00
2018-08-31T23:37:28.207Z,14.00
2018-08-31T23:40:02.728Z,14.00
2018-08-31T23:42:37.259Z,14.00
2018-08-31T23:45:11.637Z,14.00
2018-08-31T23:47:45.967Z,14.00
2018-08-31T23:50:20.324Z,14.00
2018-08-31T23:52:55.090Z,14.00
2018-08-31T23:55:29.620Z,14.10
2018-08-31T23:58:04.035Z,14.10
